Davis Monthan Air Force Base
KDMA : now visible

Airfield :











YOU CAN JOIN US ON...

 
LOGIN :

Register | Disclaimer

   EN    FR    IT 

 









Legend :    VFR   Marginal VFR   IFR   Intensive IFR   Very Intensive IFR
Visi :
Ceiling :
>= 8 km
>= 3000ft
5 to 8 km
1000 to 3000 ft
1500m to 5 km
500 to 1000 ft
800 to 1500m
200 to 500 ft
< 800m
< 200 ft
Symbols :   Thunderstorms  Fog  Heavy snow  Heavy precipitations  Wind > 20 kt






- Airport Elevation : 2704 ft


KDMA - Davis Monthan Air Force Base

CURRENT METAR :
  • 021658Z AUTO 29005KT 10SM CLR 30/15 A2996 RMK AO2 RAE09DZB09E10RAB10E17RAB18E55 SLP102 P0000 T03010154 $

EXPIRED METARs :
  • 021618Z AUTO 18003KT 10SM -RA CLR 29/16 A2996 RMK AO2 RAE09DZB09E10RAB10E17RAB18 SLP102 $
  • 021558Z AUTO 21003KT 10SM -RA FEW100 SCT130 29/15 A2997 RMK AO2 DZB17E18DZB25E27RAB29E30DZB30E35RAB35E39DZB39E40RAB40 SLP106 P0000 T02850154 $
  • 021529Z AUTO 17004KT 10SM -RA OVC120 27/17 A2996 RMK AO2 DZB17E18DZB25E27RAB29 SLP104 $
  • 021458Z AUTO 16006KT 10SM OVC110 25/18 A2996 RMK AO2 SLP107 T02540178 52009 $
  • 020258Z 10009KT 10SM OVC120 24/19 A2996 RMK AO2A RAE19DZB19E27 SLP104 P0000 60000 T02380186 $

TAF TAF KDMA
Valid from the 02 at 14:00 until the 03 at 20:00 UTC


021405Z 0214/0320 18009KT 9999 BKN120 QNH2995INS
BECMG 0219/0220 30009KT 9999 VCTS BKN090CB QNH2989INS
TEMPO 0220/0301 VRB25G35KT 9000 -TSRA BKN070CB
BECMG 0303/0304 12009KT 9999 NSW BKN100 QNH2988INS
BECMG 0312/0313 24009KT 9999 BKN100 QNH2994INS TX34/0222Z TN23/0312Z
KZAB FIR / North America



MET'MAP, your aeronautical weather chart ! - Copyright ORBIFLY December 2007 - Disclaimer

ORBIFLY MET'MAP TEAM :

Programming & Development : Alexandra Zaïnal
Original concept : Baudouin d'Aumeries
Technical & hardware support : Manuel Goepfert
Assistance : Marc-Olivier Méhu




SOURCES & CREDITS :

   NOAA       Earth
Advisory